Time;durP1;ratioP1;P1;durP2;ratioP2;P2;SDS_P1;SDS_P2;PMS_P1;PMS_P2;Temp;Humidity;BMP_temperature;BMP_pressure;BME280_temperature;BME280_humidity;BME280_pressure;Samples;Min_cycle;Max_cycle;Signal;HPM_P1;HPM_P2
2023/01/18 00:01:34;;;;;;;;;;;-1.20;99.90;;;;;;5040484;28;19904;-77
2023/01/18 00:03:59;;;;;;;;;;;-1.20;99.90;;;;;;5058597;28;19911;-76
2023/01/18 00:06:26;;;;;;;;;;;-1.20;99.90;;;;;;5058400;28;19905;-76
2023/01/18 00:08:53;;;;;;;;;;;-1.20;99.90;;;;;;5040623;28;19904;-76
2023/01/18 00:11:18;;;;;;;;;;;-1.30;99.90;;;;;;5039955;28;19920;-76
2023/01/18 00:13:44;;;;;;;;;;;-1.20;99.90;;;;;;5058326;28;19901;-76
2023/01/18 00:16:10;;;;;;;;;;;-1.30;99.90;;;;;;5058000;28;20372;-76
2023/01/18 00:18:36;;;;;;;;;;;-1.30;99.90;;;;;;5058130;28;19919;-77
2023/01/18 00:21:02;;;;;;;;;;;-1.20;99.90;;;;;;5058005;28;19904;-77
2023/01/18 00:23:28;;;;;;;;;;;-1.30;99.90;;;;;;5039655;28;19904;-77
2023/01/18 00:25:57;;;;;;;;;;;-1.30;99.90;;;;;;5058692;28;19909;-77
2023/01/18 00:28:23;;;;;;;;;;;-1.30;99.90;;;;;;5058071;28;20276;-77
2023/01/18 00:30:48;;;;;;;;;;;-1.30;99.90;;;;;;5040314;28;19905;-76
2023/01/18 00:33:14;;;;;;;;;;;-1.30;99.90;;;;;;5058284;28;19905;-76
2023/01/18 00:35:39;;;;;;;;;;;-1.30;99.90;;;;;;5058296;28;19904;-76
2023/01/18 00:38:05;;;;;;;;;;;-1.30;99.90;;;;;;5039669;28;19912;-76
2023/01/18 00:40:30;;;;;;;;;;;-1.30;99.90;;;;;;5057792;28;19909;-76
2023/01/18 00:45:40;;;;;;;;;;;-1.30;99.90;;;;;;5057749;28;20421;-76
2023/01/18 00:48:06;;;;;;;;;;;-1.40;99.90;;;;;;5058227;28;19908;-76
2023/01/18 00:50:31;;;;;;;;;;;-1.40;99.90;;;;;;5057678;28;20390;-76
2023/01/18 00:52:58;;;;;;;;;;;-1.40;99.90;;;;;;5039235;28;19905;-76
2023/01/18 00:55:24;;;;;;;;;;;-1.40;99.90;;;;;;5040075;28;20347;-76
2023/01/18 00:57:50;;;;;;;;;;;-1.40;99.90;;;;;;5057242;28;19961;-77
2023/01/18 01:00:15;;;;;;;;;;;-1.40;99.90;;;;;;5039425;28;19916;-76
2023/01/18 01:02:41;;;;;;;;;;;-0.90;99.90;;;;;;5039003;28;20371;-76
2023/01/18 01:07:58;;;;;;;;;;;-1.40;99.90;;;;;;5057035;28;19912;-76
2023/01/18 01:10:24;;;;;;;;;;;-1.30;99.90;;;;;;5038570;28;19904;-76
2023/01/18 01:26:31;;;;;;;;;;;-1.40;99.90;;;;;;5056883;28;20433;-76
2023/01/18 01:28:57;;;;;;;;;;;-1.40;99.90;;;;;;5038631;28;19905;-76
2023/01/18 01:31:22;;;;;;;;;;;-1.40;99.90;;;;;;5056227;28;19911;-76
2023/01/18 01:33:48;;;;;;;;;;;-1.40;99.90;;;;;;5056733;28;19905;-76
2023/01/18 01:36:15;;;;;;;;;;;-1.40;99.90;;;;;;5056646;28;19904;-76
2023/01/18 01:38:41;;;;;;;;;;;-1.40;99.90;;;;;;5056820;28;19936;-76
2023/01/18 01:41:13;;;;;;;;;;;-1.40;99.90;;;;;;5056589;28;20355;-76
2023/01/18 01:43:40;;;;;;;;;;;-1.40;99.90;;;;;;5056585;28;19905;-76
2023/01/18 01:46:24;;;;;;;;;;;-1.50;99.90;;;;;;5056516;28;19958;-76
2023/01/18 01:48:50;;;;;;;;;;;-1.50;99.90;;;;;;5056573;28;19911;-76
2023/01/18 01:51:17;;;;;;;;;;;-1.50;99.90;;;;;;5038444;28;19909;-76
2023/01/18 01:53:43;;;;;;;;;;;-1.60;99.90;;;;;;5039075;28;19911;-76
2023/01/18 01:56:08;;;;;;;;;;;-1.60;99.90;;;;;;5038014;28;19999;-76
2023/01/18 01:58:34;;;;;;;;;;;-1.60;99.90;;;;;;5056166;28;20007;-76
2023/01/18 02:01:00;;;;;;;;;;;-1.60;99.90;;;;;;5038217;28;20415;-76
2023/01/18 02:03:26;;;;;;;;;;;-1.60;99.90;;;;;;5037053;28;19944;-76
2023/01/18 02:05:56;;;;;;;;;;;-1.60;99.90;;;;;;5055911;28;19905;-76
2023/01/18 02:08:21;;;;;;;;;;;-1.70;99.90;;;;;;5038478;28;19912;-76
2023/01/18 02:10:47;;;;;;;;;;;-1.70;99.90;;;;;;5037865;28;19905;-76
2023/01/18 02:13:14;;;;;;;;;;;-1.70;99.90;;;;;;5055750;28;20003;-76
2023/01/18 02:15:46;;;;;;;;;;;-1.80;99.90;;;;;;5055598;28;19905;-76
2023/01/18 02:18:32;;;;;;;;;;;-1.80;99.90;;;;;;5037798;28;19909;-76
2023/01/18 02:21:11;;;;;;;;;;;-1.80;99.90;;;;;;5023457;28;19912;-76
2023/01/18 02:23:56;;;;;;;;;;;-1.80;99.90;;;;;;5037313;28;19912;-76
2023/01/18 02:26:21;;;;;;;;;;;-1.80;99.90;;;;;;5055618;28;19934;-76
2023/01/18 02:29:05;;;;;;;;;;;-1.90;99.90;;;;;;5037645;28;19949;-76
2023/01/18 02:31:37;;;;;;;;;;;-1.90;99.90;;;;;;5055348;28;19905;-76
2023/01/18 02:34:05;;;;;;;;;;;-2.00;99.90;;;;;;5037581;28;19905;-76
2023/01/18 02:36:35;;;;;;;;;;;-2.00;99.90;;;;;;5037744;28;19905;-76
2023/01/18 02:39:04;;;;;;;;;;;-2.00;99.90;;;;;;5037567;28;19905;-76
2023/01/18 02:47:08;;;;;;;;;;;-2.00;99.90;;;;;;5055182;28;20278;-76
2023/01/18 02:49:34;;;;;;;;;;;-2.10;99.90;;;;;;5055262;28;19905;-76
2023/01/18 02:52:04;;;;;;;;;;;-2.10;99.90;;;;;;5055317;28;19949;-76
2023/01/18 02:54:31;;;;;;;;;;;-2.00;99.90;;;;;;5055008;28;19905;-76
2023/01/18 02:56:57;;;;;;;;;;;-2.00;99.90;;;;;;5055520;28;20005;-76
2023/01/18 02:59:28;;;;;;;;;;;-2.10;99.90;;;;;;5037416;28;19908;-76
2023/01/18 03:01:59;;;;;;;;;;;-2.10;99.90;;;;;;5055188;28;19905;-76
2023/01/18 03:04:40;;;;;;;;;;;-2.00;99.90;;;;;;5055223;28;19914;-76
2023/01/18 03:07:14;;;;;;;;;;;-2.00;99.90;;;;;;5037151;28;19912;-76
2023/01/18 03:09:40;;;;;;;;;;;-2.00;99.90;;;;;;5037304;28;19908;-76
2023/01/18 03:12:24;;;;;;;;;;;-2.00;99.90;;;;;;5054699;28;20441;-76
2023/01/18 03:14:57;;;;;;;;;;;-2.00;99.90;;;;;;5037038;28;19905;-76
2023/01/18 03:17:39;;;;;;;;;;;-1.90;99.90;;;;;;5037051;28;19965;-76
2023/01/18 03:20:10;;;;;;;;;;;-1.90;99.90;;;;;;5055027;28;19952;-76
2023/01/18 03:25:27;;;;;;;;;;;-1.90;99.90;;;;;;5055545;28;20256;-76
2023/01/18 03:33:44;;;;;;;;;;;-1.90;99.90;;;;;;5055231;28;19962;-76
2023/01/18 03:36:13;;;;;;;;;;;-1.90;99.90;;;;;;5054946;28;19911;-76
2023/01/18 03:38:41;;;;;;;;;;;-1.90;99.90;;;;;;5037154;28;19979;-76
2023/01/18 03:41:07;;;;;;;;;;;-1.90;99.90;;;;;;5054404;28;20367;-76
2023/01/18 03:43:37;;;;;;;;;;;-1.90;99.90;;;;;;5054654;28;19947;-76
2023/01/18 03:46:03;;;;;;;;;;;-1.90;99.90;;;;;;5055007;28;19905;-76
2023/01/18 03:48:29;;;;;;;;;;;-1.90;99.90;;;;;;5054766;28;19912;-76
2023/01/18 03:51:01;;;;;;;;;;;-1.90;99.90;;;;;;5054415;28;19912;-76
2023/01/18 03:53:31;;;;;;;;;;;-1.90;99.90;;;;;;5054919;28;19955;-76
2023/01/18 03:56:03;;;;;;;;;;;-1.90;99.90;;;;;;5054418;28;19909;-76
2023/01/18 03:58:31;;;;;;;;;;;-2.00;99.90;;;;;;5036717;28;19930;-76
2023/01/18 04:00:56;;;;;;;;;;;-2.00;99.90;;;;;;5055125;28;19909;-76
2023/01/18 04:03:22;;;;;;;;;;;-2.00;99.90;;;;;;5054834;28;19911;-76
2023/01/18 04:05:47;;;;;;;;;;;-2.00;99.90;;;;;;5054583;28;19904;-76
2023/01/18 04:08:14;;;;;;;;;;;-2.00;99.90;;;;;;5054248;28;19905;-76
2023/01/18 04:10:39;;;;;;;;;;;-2.00;99.90;;;;;;5036480;28;20389;-76
2023/01/18 04:13:05;;;;;;;;;;;-2.00;99.90;;;;;;5054184;28;19913;-76
2023/01/18 04:15:30;;;;;;;;;;;-1.90;99.90;;;;;;5054442;28;19904;-76
2023/01/18 04:17:56;;;;;;;;;;;-1.90;99.90;;;;;;5054275;28;19913;-76
2023/01/18 04:20:21;;;;;;;;;;;-1.90;99.90;;;;;;5036522;28;19905;-76
2023/01/18 04:22:56;;;;;;;;;;;-1.90;99.90;;;;;;5036245;28;19905;-76
2023/01/18 04:25:21;;;;;;;;;;;-1.90;99.90;;;;;;5054133;28;20279;-76
2023/01/18 04:27:47;;;;;;;;;;;-1.90;99.90;;;;;;5057085;28;19905;-76
2023/01/18 04:30:12;;;;;;;;;;;-1.90;99.90;;;;;;5039850;28;19905;-76
2023/01/18 04:32:38;;;;;;;;;;;-1.80;99.90;;;;;;5057946;28;19909;-76
2023/01/18 04:35:05;;;;;;;;;;;-1.80;99.90;;;;;;5040299;28;19966;-76
2023/01/18 04:37:33;;;;;;;;;;;-1.80;99.90;;;;;;5039717;28;19932;-76
2023/01/18 04:40:00;;;;;;;;;;;-1.80;99.90;;;;;;5057848;28;19905;-76
2023/01/18 04:42:25;;;;;;;;;;;-1.70;99.90;;;;;;5058328;28;19944;-76
2023/01/18 04:44:52;;;;;;;;;;;-1.80;99.90;;;;;;5039684;28;19904;-76
2023/01/18 04:47:17;;;;;;;;;;;-1.80;99.90;;;;;;5039791;28;19905;-76
2023/01/18 04:49:43;;;;;;;;;;;-1.70;99.90;;;;;;5057032;28;20315;-76
2023/01/18 04:52:08;;;;;;;;;;;-1.80;99.90;;;;;;5039701;28;19904;-76
2023/01/18 04:54:34;;;;;;;;;;;-1.80;99.90;;;;;;5057988;28;19905;-76
2023/01/18 04:56:59;;;;;;;;;;;-1.80;99.90;;;;;;5057309;28;19944;-76
2023/01/18 04:59:25;;;;;;;;;;;-1.80;99.90;;;;;;5057424;28;19905;-76
2023/01/18 05:01:50;;;;;;;;;;;-1.80;99.90;;;;;;5057187;28;19904;-76
2023/01/18 05:04:16;;;;;;;;;;;-1.70;99.90;;;;;;5039474;28;19920;-76
2023/01/18 05:06:41;;;;;;;;;;;-1.70;99.90;;;;;;5057943;28;20004;-76
2023/01/18 05:09:10;;;;;;;;;;;-1.70;99.90;;;;;;5057200;28;19905;-76
2023/01/18 05:11:35;;;;;;;;;;;-1.70;99.90;;;;;;5056849;28;19909;-76
2023/01/18 05:14:01;;;;;;;;;;;-1.00;99.90;;;;;;5039308;28;20257;-76
2023/01/18 05:16:26;;;;;;;;;;;-1.70;99.90;;;;;;5039104;28;19909;-76
2023/01/18 05:18:52;;;;;;;;;;;-1.70;99.90;;;;;;5057278;28;19960;-76
2023/01/18 05:21:17;;;;;;;;;;;-1.70;99.90;;;;;;5039112;28;19954;-76
2023/01/18 05:23:43;;;;;;;;;;;-1.70;99.90;;;;;;5038715;28;19905;-76
2023/01/18 05:26:19;;;;;;;;;;;-1.80;99.90;;;;;;5056992;28;20384;-76
2023/01/18 05:28:45;;;;;;;;;;;-1.80;99.90;;;;;;5057022;28;20287;-76
2023/01/18 05:31:11;;;;;;;;;;;-1.90;99.90;;;;;;5039123;28;20333;-76
2023/01/18 05:33:37;;;;;;;;;;;-1.90;99.90;;;;;;5057053;28;19956;-77
2023/01/18 05:36:02;;;;;;;;;;;-2.00;99.90;;;;;;5056758;28;19991;-76
2023/01/18 05:38:28;;;;;;;;;;;-2.00;99.90;;;;;;5057825;28;20361;-76
2023/01/18 05:40:53;;;;;;;;;;;-2.00;99.90;;;;;;5057057;28;20321;-76
2023/01/18 05:43:23;;;;;;;;;;;-1.90;99.90;;;;;;5039120;28;19911;-76
2023/01/18 05:45:49;;;;;;;;;;;-1.90;99.90;;;;;;5056364;28;19905;-76
2023/01/18 05:48:14;;;;;;;;;;;-1.90;99.90;;;;;;5056580;28;19911;-76
2023/01/18 05:50:42;;;;;;;;;;;-1.80;99.90;;;;;;5038655;28;19905;-76
2023/01/18 05:53:08;;;;;;;;;;;-1.80;99.90;;;;;;5056150;28;19905;-76
2023/01/18 05:55:33;;;;;;;;;;;-1.80;99.90;;;;;;5038812;28;19912;-76
2023/01/18 05:57:59;;;;;;;;;;;-1.90;99.90;;;;;;5038493;28;19970;-76
2023/01/18 06:00:24;;;;;;;;;;;-1.90;99.90;;;;;;5056294;28;19904;-76
2023/01/18 06:02:51;;;;;;;;;;;-1.90;99.90;;;;;;5038044;28;19909;-76
2023/01/18 06:05:16;;;;;;;;;;;-2.00;99.90;;;;;;5038298;28;19909;-76
2023/01/18 06:07:42;;;;;;;;;;;-2.00;99.90;;;;;;5038567;28;19912;-76
2023/01/18 06:10:08;;;;;;;;;;;-2.00;99.90;;;;;;5038056;28;19909;-76
2023/01/18 06:12:33;;;;;;;;;;;-1.90;99.90;;;;;;5038015;28;19923;-76
2023/01/18 06:14:59;;;;;;;;;;;-1.80;99.90;;;;;;5055899;28;19912;-76
2023/01/18 06:17:25;;;;;;;;;;;-1.70;99.90;;;;;;5055913;28;19948;-76
2023/01/18 06:19:50;;;;;;;;;;;-1.50;99.90;;;;;;5037822;28;19992;-76
2023/01/18 06:22:15;;;;;;;;;;;-1.50;99.90;;;;;;5055953;28;19916;-76
2023/01/18 06:24:41;;;;;;;;;;;-1.30;99.90;;;;;;5055757;28;19959;-76
2023/01/18 06:27:06;;;;;;;;;;;-1.30;99.90;;;;;;5056134;28;19905;-76
2023/01/18 06:29:32;;;;;;;;;;;-1.10;99.90;;;;;;5038205;28;20355;-76
2023/01/18 06:31:57;;;;;;;;;;;-1.00;99.90;;;;;;5038188;28;19962;-77
2023/01/18 06:34:23;;;;;;;;;;;-0.90;99.90;;;;;;5038582;28;20047;-76
2023/01/18 06:36:48;;;;;;;;;;;-0.90;99.90;;;;;;5055764;28;20485;-75
2023/01/18 06:39:14;;;;;;;;;;;-0.90;99.90;;;;;;5056402;28;19948;-75
2023/01/18 06:41:39;;;;;;;;;;;-0.90;99.90;;;;;;5056295;28;20287;-74
2023/01/18 06:44:05;;;;;;;;;;;-0.80;99.90;;;;;;5038800;28;19912;-75
2023/01/18 06:46:30;;;;;;;;;;;-0.80;99.90;;;;;;5056433;28;19911;-75
2023/01/18 06:48:56;;;;;;;;;;;-0.80;99.90;;;;;;5056292;28;19915;-75
2023/01/18 06:51:23;;;;;;;;;;;-0.80;99.90;;;;;;5055907;28;19911;-75
2023/01/18 06:53:48;;;;;;;;;;;-0.80;99.90;;;;;;5056149;28;19904;-77
2023/01/18 06:56:14;;;;;;;;;;;-0.70;99.90;;;;;;5037781;28;19911;-78
2023/01/18 06:58:40;;;;;;;;;;;-0.70;99.90;;;;;;5037911;28;19915;-78
2023/01/18 07:01:05;;;;;;;;;;;-0.70;99.90;;;;;;5055156;28;20003;-77
2023/01/18 07:03:31;;;;;;;;;;;-0.70;99.90;;;;;;5055242;28;19905;-77
2023/01/18 07:05:58;;;;;;;;;;;-0.60;99.90;;;;;;5038922;28;20372;-77
2023/01/18 07:08:25;;;;;;;;;;;-0.60;99.90;;;;;;5039261;28;19927;-76
2023/01/18 07:10:51;;;;;;;;;;;-0.60;99.90;;;;;;5039454;28;19908;-76
2023/01/18 07:13:17;;;;;;;;;;;-0.50;99.90;;;;;;5037917;28;19978;-76
2023/01/18 07:15:43;;;;;;;;;;;-0.50;99.90;;;;;;5056306;28;19905;-76
2023/01/18 07:18:08;;;;;;;;;;;-0.40;99.90;;;;;;5056440;28;19908;-76
2023/01/18 07:20:34;;;;;;;;;;;-0.40;99.90;;;;;;5038396;28;20007;-76
2023/01/18 07:22:59;;;;;;;;;;;-0.40;99.90;;;;;;5056491;28;19904;-76
2023/01/18 07:25:26;;;;;;;;;;;-0.40;99.90;;;;;;5055945;28;20066;-76
2023/01/18 07:27:51;;;;;;;;;;;-0.40;99.90;;;;;;5055880;28;20271;-76
2023/01/18 07:30:17;;;;;;;;;;;-0.40;99.90;;;;;;5055815;28;19905;-77
2023/01/18 07:32:47;;;;;;;;;;;-0.50;99.90;;;;;;5038666;28;20355;-76
2023/01/18 07:35:13;;;;;;;;;;;-0.60;99.90;;;;;;5056290;28;19911;-76
2023/01/18 07:37:38;;;;;;;;;;;-0.70;99.90;;;;;;5055782;28;20337;-76
2023/01/18 07:40:04;;;;;;;;;;;-0.80;99.90;;;;;;5055383;28;19905;-76
2023/01/18 07:42:29;;;;;;;;;;;-0.90;99.90;;;;;;5055678;28;19904;-76
2023/01/18 07:44:55;;;;;;;;;;;-0.90;99.90;;;;;;5055214;28;19905;-76
2023/01/18 07:47:20;;;;;;;;;;;-1.00;99.90;;;;;;5055247;28;19911;-76
2023/01/18 07:49:46;;;;;;;;;;;-1.10;99.90;;;;;;5054980;28;20422;-76
2023/01/18 07:52:11;;;;;;;;;;;-1.10;99.90;;;;;;5037046;28;19912;-76
2023/01/18 07:54:37;;;;;;;;;;;-1.20;99.90;;;;;;5036731;28;19911;-76
2023/01/18 07:57:02;;;;;;;;;;;-1.20;99.90;;;;;;5036795;28;19909;-76
2023/01/18 07:59:29;;;;;;;;;;;-1.30;99.90;;;;;;5037046;28;19905;-76
2023/01/18 08:01:55;;;;;;;;;;;-1.30;99.90;;;;;;5055791;28;19911;-76
2023/01/18 08:04:21;;;;;;;;;;;-1.30;99.90;;;;;;5058861;28;19936;-76
2023/01/18 08:06:46;;;;;;;;;;;-1.30;99.90;;;;;;5040963;28;20359;-76
2023/01/18 08:09:12;;;;;;;;;;;-1.30;99.90;;;;;;5059041;28;19951;-76
2023/01/18 08:11:37;;;;;;;;;;;-1.20;99.90;;;;;;5058104;28;20440;-76
2023/01/18 08:14:03;;;;;;;;;;;-1.20;99.90;;;;;;5058531;28;19904;-76
2023/01/18 08:16:28;;;;;;;;;;;-1.20;99.90;;;;;;5058877;28;19974;-76
2023/01/18 08:18:53;;;;;;;;;;;-1.10;99.90;;;;;;5040208;28;19916;-76
2023/01/18 08:21:19;;;;;;;;;;;-1.10;99.90;;;;;;5058264;28;19904;-76
2023/01/18 08:23:44;;;;;;;;;;;-1.00;99.90;;;;;;5057687;28;19905;-77
2023/01/18 08:26:12;;;;;;;;;;;-0.90;99.90;;;;;;5058302;28;19905;-76
2023/01/18 08:28:38;;;;;;;;;;;-0.70;99.90;;;;;;5040565;28;20435;-76
2023/01/18 08:31:06;;;;;;;;;;;-0.60;99.90;;;;;;5058191;28;19955;-76
2023/01/18 08:33:34;;;;;;;;;;;-0.40;99.90;;;;;;5058104;28;19904;-76
2023/01/18 08:36:00;;;;;;;;;;;-0.40;99.90;;;;;;5058320;28;20260;-76
2023/01/18 08:38:25;;;;;;;;;;;-0.30;99.90;;;;;;5058163;28;20359;-76
2023/01/18 08:40:51;;;;;;;;;;;-0.10;99.90;;;;;;5040321;28;19912;-76
2023/01/18 08:43:17;;;;;;;;;;;0.00;99.90;;;;;;5058113;28;20268;-76
2023/01/18 08:45:42;;;;;;;;;;;0.20;99.90;;;;;;5058213;28;20000;-76
2023/01/18 08:48:09;;;;;;;;;;;0.40;99.90;;;;;;5058487;28;19912;-76
2023/01/18 08:50:35;;;;;;;;;;;0.40;99.90;;;;;;5058034;28;20327;-76
2023/01/18 08:53:01;;;;;;;;;;;0.50;99.90;;;;;;5039838;28;20306;-76
2023/01/18 08:55:28;;;;;;;;;;;0.60;99.90;;;;;;5058413;28;19904;-76
2023/01/18 08:57:54;;;;;;;;;;;0.70;99.90;;;;;;5057730;28;19908;-76
2023/01/18 09:00:22;;;;;;;;;;;0.80;99.90;;;;;;5039225;28;20011;-76
2023/01/18 09:02:47;;;;;;;;;;;1.00;99.90;;;;;;5058223;28;20351;-76
2023/01/18 09:05:13;;;;;;;;;;;1.00;99.90;;;;;;5058247;28;19954;-76
2023/01/18 09:07:38;;;;;;;;;;;1.10;99.90;;;;;;5057861;28;19911;-76
2023/01/18 09:10:04;;;;;;;;;;;1.10;99.90;;;;;;5057859;28;20360;-76
2023/01/18 09:12:29;;;;;;;;;;;1.30;99.90;;;;;;5053954;22;20012;-77
2023/01/18 09:14:55;;;;;;;;;;;1.30;99.90;;;;;;5036210;28;20010;-77
2023/01/18 09:17:20;;;;;;;;;;;1.40;99.90;;;;;;5037995;28;19920;-77
2023/01/18 09:19:46;;;;;;;;;;;1.40;99.90;;;;;;5019825;28;20367;-77
2023/01/18 09:22:11;;;;;;;;;;;1.40;99.90;;;;;;5037531;28;19939;-77
2023/01/18 09:24:37;;;;;;;;;;;1.50;99.90;;;;;;5020076;28;19909;-77
2023/01/18 09:27:06;;;;;;;;;;;1.60;99.90;;;;;;5038107;28;19905;-77
2023/01/18 09:29:31;;;;;;;;;;;1.70;99.90;;;;;;5037039;28;19909;-78
2023/01/18 09:31:58;;;;;;;;;;;1.70;99.90;;;;;;5019578;28;19996;-77
2023/01/18 09:34:24;;;;;;;;;;;1.80;99.90;;;;;;5036874;28;19912;-77
2023/01/18 09:36:50;;;;;;;;;;;3.60;99.90;;;;;;5037276;28;20283;-77
2023/01/18 09:39:16;;;;;;;;;;;2.00;99.90;;;;;;5037293;28;19905;-78
2023/01/18 09:41:43;;;;;;;;;;;2.00;99.90;;;;;;5037472;28;19939;-78
2023/01/18 09:44:16;;;;;;;;;;;2.10;99.90;;;;;;5018793;28;20011;-78
2023/01/18 09:46:43;;;;;;;;;;;2.10;99.90;;;;;;5036787;28;19990;-78
2023/01/18 09:49:17;;;;;;;;;;;2.20;99.90;;;;;;5019261;28;19911;-78
2023/01/18 09:51:43;;;;;;;;;;;2.20;99.90;;;;;;5037316;28;19990;-78
2023/01/18 09:54:13;;;;;;;;;;;2.30;99.90;;;;;;5018736;28;19905;-78
2023/01/18 09:56:47;;;;;;;;;;;2.30;99.90;;;;;;5036364;28;19912;-77
2023/01/18 09:59:20;;;;;;;;;;;2.30;99.90;;;;;;5018589;28;19959;-77
2023/01/18 10:01:46;;;;;;;;;;;2.30;99.90;;;;;;5036066;28;19908;-77
2023/01/18 10:04:18;;;;;;;;;;;2.30;99.90;;;;;;5019581;28;19912;-77
2023/01/18 10:06:43;;;;;;;;;;;2.40;99.90;;;;;;5018811;28;19905;-77
2023/01/18 10:09:15;;;;;;;;;;;2.40;99.90;;;;;;5036001;28;20261;-77
2023/01/18 10:11:53;;;;;;;;;;;2.60;99.90;;;;;;5018409;28;20287;-78
2023/01/18 10:14:28;;;;;;;;;;;2.60;99.90;;;;;;5036499;28;19909;-78
2023/01/18 10:16:56;;;;;;;;;;;2.70;99.90;;;;;;5036131;28;19905;-77
2023/01/18 10:19:24;;;;;;;;;;;2.80;99.90;;;;;;5035836;28;19912;-77
2023/01/18 10:21:56;;;;;;;;;;;2.80;99.90;;;;;;5018808;28;19905;-77
2023/01/18 10:24:34;;;;;;;;;;;2.90;99.90;;;;;;5035304;28;19912;-77
2023/01/18 10:27:23;;;;;;;;;;;2.90;99.90;;;;;;5036328;28;19912;-77
2023/01/18 10:29:57;;;;;;;;;;;2.90;99.90;;;;;;5036549;28;19905;-78
2023/01/18 10:32:24;;;;;;;;;;;3.10;99.90;;;;;;5036804;28;20047;-77
2023/01/18 10:34:50;;;;;;;;;;;3.20;99.90;;;;;;5035962;28;20340;-77
2023/01/18 10:37:23;;;;;;;;;;;3.20;99.90;;;;;;5017603;28;20364;-77
2023/01/18 10:39:50;;;;;;;;;;;3.20;99.90;;;;;;5019014;28;20367;-77
2023/01/18 10:42:19;;;;;;;;;;;3.20;99.90;;;;;;5037269;28;19959;-77
2023/01/18 10:44:44;;;;;;;;;;;3.30;99.90;;;;;;5035818;28;19912;-77
2023/01/18 10:47:10;;;;;;;;;;;3.30;99.90;;;;;;5036157;28;19905;-78
2023/01/18 10:49:38;;;;;;;;;;;3.40;99.90;;;;;;5036680;28;19928;-77
2023/01/18 10:52:26;;;;;;;;;;;3.40;99.90;;;;;;5035974;28;20288;-77
2023/01/18 10:54:54;;;;;;;;;;;3.50;99.90;;;;;;5018629;28;20016;-77
2023/01/18 10:57:26;;;;;;;;;;;3.50;99.90;;;;;;5036167;28;19909;-76
2023/01/18 10:59:54;;;;;;;;;;;3.70;99.90;;;;;;5021472;28;20370;-77
2023/01/18 11:02:31;;;;;;;;;;;3.60;99.90;;;;;;5020686;28;20352;-76
2023/01/18 11:04:58;;;;;;;;;;;3.70;99.90;;;;;;5038874;28;19905;-76
2023/01/18 11:07:25;;;;;;;;;;;3.70;99.90;;;;;;5038088;28;19905;-76
2023/01/18 11:09:58;;;;;;;;;;;3.70;99.90;;;;;;5021107;28;19905;-77
2023/01/18 11:12:32;;;;;;;;;;;3.70;99.90;;;;;;5038157;28;19935;-77
2023/01/18 11:15:13;;;;;;;;;;;3.70;99.90;;;;;;5038823;28;19909;-77
2023/01/18 11:17:39;;;;;;;;;;;3.80;99.90;;;;;;5038709;28;19909;-77
2023/01/18 11:20:06;;;;;;;;;;;3.80;99.90;;;;;;5021779;28;19948;-77
2023/01/18 11:22:32;;;;;;;;;;;3.80;99.90;;;;;;5039504;28;20261;-77
2023/01/18 11:24:58;;;;;;;;;;;3.90;99.90;;;;;;5038096;28;20382;-76
2023/01/18 11:27:24;;;;;;;;;;;3.80;99.90;;;;;;5038417;28;19905;-76
2023/01/18 11:29:49;;;;;;;;;;;3.90;99.90;;;;;;5020330;28;19905;-76
2023/01/18 11:32:25;;;;;;;;;;;4.00;99.90;;;;;;5037741;28;19905;-76
2023/01/18 11:34:52;;;;;;;;;;;4.00;99.90;;;;;;5021019;28;19964;-76
2023/01/18 11:37:23;;;;;;;;;;;4.00;99.90;;;;;;5021439;28;19919;-76
2023/01/18 11:39:49;;;;;;;;;;;4.00;99.90;;;;;;5039529;28;20390;-76
2023/01/18 11:42:23;;;;;;;;;;;4.00;99.90;;;;;;5038656;28;19905;-76
2023/01/18 11:45:15;;;;;;;;;;;4.10;99.90;;;;;;5021620;28;19951;-76
2023/01/18 11:47:49;;;;;;;;;;;4.10;99.90;;;;;;5009280;28;20004;-76
2023/01/18 11:50:24;;;;;;;;;;;4.30;99.90;;;;;;5038746;28;20276;-77
2023/01/18 11:52:55;;;;;;;;;;;4.30;99.90;;;;;;5038830;28;20278;-77
2023/01/18 11:55:30;;;;;;;;;;;4.40;99.90;;;;;;5040346;28;19905;-76
2023/01/18 11:57:56;;;;;;;;;;;4.40;99.90;;;;;;5021409;28;19916;-76
2023/01/18 12:00:26;;;;;;;;;;;4.50;99.90;;;;;;5021289;28;19976;-76
2023/01/18 12:02:55;;;;;;;;;;;4.50;99.90;;;;;;5039626;28;19905;-76
2023/01/18 12:05:27;;;;;;;;;;;4.50;99.90;;;;;;5021602;28;20356;-76
2023/01/18 12:08:11;;;;;;;;;;;4.60;99.90;;;;;;5021828;28;19912;-77
2023/01/18 12:10:44;;;;;;;;;;;4.70;99.90;;;;;;5022632;28;19940;-76
2023/01/18 12:13:19;;;;;;;;;;;4.80;99.90;;;;;;5040097;28;19939;-76
2023/01/18 12:15:47;;;;;;;;;;;4.80;99.90;;;;;;5021958;28;20004;-76
2023/01/18 12:18:31;;;;;;;;;;;4.80;99.90;;;;;;5021432;28;19916;-76
2023/01/18 12:21:11;;;;;;;;;;;4.90;99.90;;;;;;5022575;28;19909;-76
2023/01/18 12:23:48;;;;;;;;;;;5.00;99.90;;;;;;5022385;28;19964;-76
2023/01/18 12:26:32;;;;;;;;;;;4.90;99.90;;;;;;5021501;28;19944;-76
2023/01/18 12:29:07;;;;;;;;;;;4.60;99.90;;;;;;5021662;28;19909;-76
2023/01/18 12:31:38;;;;;;;;;;;4.70;99.90;;;;;;5023461;28;19972;-76
2023/01/18 12:34:04;;;;;;;;;;;4.80;99.90;;;;;;5023239;28;20004;-76
2023/01/18 12:36:33;;;;;;;;;;;4.90;99.90;;;;;;5023482;28;19940;-77
2023/01/18 12:39:03;;;;;;;;;;;4.90;99.90;;;;;;5041239;28;19909;-76
2023/01/18 12:41:28;;;;;;;;;;;4.90;99.90;;;;;;5040276;28;19905;-77
2023/01/18 12:44:03;;;;;;;;;;;5.10;99.90;;;;;;5022585;28;19905;-77
2023/01/18 12:46:38;;;;;;;;;;;5.10;99.90;;;;;;5021961;28;19905;-77
2023/01/18 12:49:10;;;;;;;;;;;5.30;99.90;;;;;;5043020;28;19905;-77
2023/01/18 12:51:36;;;;;;;;;;;5.50;99.90;;;;;;5042966;28;20295;-77
2023/01/18 12:54:11;;;;;;;;;;;5.60;99.90;;;;;;5024910;28;19909;-77
2023/01/18 12:56:38;;;;;;;;;;;5.50;99.90;;;;;;5042947;28;19905;-77
2023/01/18 12:59:05;;;;;;;;;;;5.60;99.90;;;;;;5024789;28;19948;-77
2023/01/18 13:01:37;;;;;;;;;;;7.50;99.90;;;;;;5024916;28;19992;-77
2023/01/18 13:04:10;;;;;;;;;;;5.60;99.90;;;;;;5025027;28;20387;-76
2023/01/18 13:06:36;;;;;;;;;;;5.60;99.90;;;;;;5042825;28;20342;-77
2023/01/18 13:09:05;;;;;;;;;;;5.60;99.90;;;;;;5041785;28;19905;-77
2023/01/18 13:11:33;;;;;;;;;;;5.70;99.90;;;;;;5040705;28;19909;-77
2023/01/18 13:14:10;;;;;;;;;;;5.90;99.90;;;;;;5024175;28;19905;-77
2023/01/18 13:16:38;;;;;;;;;;;5.90;99.90;;;;;;5024568;28;19912;-77
2023/01/18 13:19:16;;;;;;;;;;;6.90;99.90;;;;;;5023872;28;19909;-77
2023/01/18 13:22:01;;;;;;;;;;;5.90;99.90;;;;;;5041691;28;19995;-77
2023/01/18 13:24:38;;;;;;;;;;;5.80;99.90;;;;;;5040591;28;19912;-77
2023/01/18 13:27:06;;;;;;;;;;;5.60;99.90;;;;;;5040591;28;20012;-77
2023/01/18 13:29:32;;;;;;;;;;;5.20;99.90;;;;;;5023247;28;19909;-77
2023/01/18 13:31:58;;;;;;;;;;;5.10;99.90;;;;;;5024442;28;20275;-77
2023/01/18 13:34:30;;;;;;;;;;;5.60;99.90;;;;;;5023285;28;19912;-77
2023/01/18 13:36:57;;;;;;;;;;;4.90;99.90;;;;;;5040515;28;19911;-77
2023/01/18 13:39:23;;;;;;;;;;;4.70;99.90;;;;;;5040811;28;19905;-77
2023/01/18 13:42:00;;;;;;;;;;;4.70;99.90;;;;;;5040508;28;19951;-77
2023/01/18 13:44:31;;;;;;;;;;;4.80;99.90;;;;;;5040924;28;20352;-77
2023/01/18 13:46:58;;;;;;;;;;;4.70;99.90;;;;;;5040695;28;20003;-77
2023/01/18 13:49:26;;;;;;;;;;;4.70;99.90;;;;;;5039888;28;19912;-78
2023/01/18 13:51:52;;;;;;;;;;;4.50;99.90;;;;;;5037796;28;19905;-78
2023/01/18 13:54:38;;;;;;;;;;;4.60;99.90;;;;;;5036586;28;19936;-78
2023/01/18 13:57:03;;;;;;;;;;;4.60;99.90;;;;;;5019135;28;19905;-78
2023/01/18 13:59:31;;;;;;;;;;;5.60;99.90;;;;;;5036243;28;19912;-78
2023/01/18 14:02:05;;;;;;;;;;;4.60;99.90;;;;;;5020312;28;19911;-78
2023/01/18 14:04:31;;;;;;;;;;;4.60;99.90;;;;;;5020107;28;19995;-78
2023/01/18 14:06:59;;;;;;;;;;;4.50;99.90;;;;;;5037822;28;19905;-78
2023/01/18 14:09:31;;;;;;;;;;;4.50;99.90;;;;;;5037433;28;19912;-78
2023/01/18 14:11:57;;;;;;;;;;;4.50;99.90;;;;;;5019976;28;19984;-78
2023/01/18 14:14:24;;;;;;;;;;;4.30;99.90;;;;;;5020240;28;19912;-78
2023/01/18 14:16:56;;;;;;;;;;;4.30;99.90;;;;;;5020004;28;19908;-78
2023/01/18 14:19:21;;;;;;;;;;;4.30;99.90;;;;;;5020175;28;19912;-78
2023/01/18 14:21:50;;;;;;;;;;;4.20;99.90;;;;;;5019128;28;19909;-78
2023/01/18 14:24:28;;;;;;;;;;;4.20;99.90;;;;;;5037228;28;19905;-78
2023/01/18 14:26:54;;;;;;;;;;;4.20;99.90;;;;;;5037508;28;19905;-78
2023/01/18 14:29:26;;;;;;;;;;;4.20;99.90;;;;;;5020061;28;19948;-78
2023/01/18 14:31:53;;;;;;;;;;;4.20;99.90;;;;;;5038803;28;19940;-77
2023/01/18 14:34:28;;;;;;;;;;;4.20;99.90;;;;;;5036774;28;19932;-78
2023/01/18 14:36:54;;;;;;;;;;;4.20;99.90;;;;;;5037322;28;20364;-77
2023/01/18 14:39:20;;;;;;;;;;;4.10;99.90;;;;;;5019901;28;19955;-77
2023/01/18 14:41:48;;;;;;;;;;;4.10;99.90;;;;;;5037332;28;20399;-77
2023/01/18 14:44:33;;;;;;;;;;;4.10;99.90;;;;;;5019359;28;19904;-77
2023/01/18 14:46:59;;;;;;;;;;;4.00;99.90;;;;;;5018246;28;19995;-77
2023/01/18 14:49:27;;;;;;;;;;;4.00;99.90;;;;;;5036098;28;19940;-77
2023/01/18 14:51:53;;;;;;;;;;;4.00;99.90;;;;;;5036494;28;19908;-77
2023/01/18 14:54:20;;;;;;;;;;;4.00;99.90;;;;;;5037372;28;19955;-77
2023/01/18 14:56:45;;;;;;;;;;;4.00;99.90;;;;;;5035799;28;19912;-77
2023/01/18 14:59:26;;;;;;;;;;;4.00;99.90;;;;;;5035552;28;19909;-77
2023/01/18 15:01:53;;;;;;;;;;;4.00;99.90;;;;;;5037242;28;19947;-77
2023/01/18 15:04:20;;;;;;;;;;;4.00;99.90;;;;;;5020920;28;19905;-77